Observation data for McLean on 12/09/2018      Previous  Date  Next       Current Mesonet Observations  Soil Data  Daily Summary Page  Observations in Plain Language
KMCS 090600Z 31007KT M06/M12 A3029 RMK A01 T10601121  RH  062%=      5-min Rain = 0
KMCS 090605Z 31007KT M06/M12 A3029 RMK A01 T10611120  RH  063%=      5-min Rain = 0
KMCS 090610Z 30007KT M06/M12 A3029 RMK A01 T10631119  RH  064%=      5-min Rain = 0
KMCS 090615Z 31007KT M06/M12 A3029 RMK A01 T10631118  RH  064%=      5-min Rain = 0
KMCS 090620Z 30007KT M06/M12 A3029 RMK A01 T10631117  RH  065%=      5-min Rain = 0
KMCS 090625Z 30007KT M06/M12 A3029 RMK A01 T10641117  RH  066%=      5-min Rain = 0
KMCS 090630Z 30007KT M06/M12 A3029 RMK A01 T10641116  RH  066%=      5-min Rain = 0
KMCS 090635Z 31008KT M06/M12 A3028 RMK A01 T10611115  RH  065%=      5-min Rain = 0
KMCS 090640Z 32007KT M06/M11 A3028 RMK A01 T10601114  RH  065%=      5-min Rain = 0
KMCS 090645Z 32006KT M06/M12 A3028 RMK A01 T10611115  RH  065%=      5-min Rain = 0
KMCS 090650Z 32006KT M06/M12 A3028 RMK A01 T10621115  RH  066%=      5-min Rain = 0
KMCS 090655Z 32007KT M06/M12 A3028 RMK A01 T10631115  RH  066%=      5-min Rain = 0
KMCS 090700Z 31007KT M06/M12 A3028 RMK A01 T10611115  RH  065%=      5-min Rain = 0
KMCS 090705Z 31007KT M06/M12 A3028 RMK A01 T10621117  RH  065%=      5-min Rain = 0
KMCS 090710Z 30007KT M07/M12 A3028 RMK A01 T10671118  RH  067%=      5-min Rain = 0
KMCS 090715Z 30007KT M07/M12 A3028 RMK A01 T10691117  RH  068%=      5-min Rain = 0
KMCS 090720Z 30007KT M07/M12 A3028 RMK A01 T10681116  RH  068%=      5-min Rain = 0
KMCS 090725Z 31007KT M06/M12 A3028 RMK A01 T10641115  RH  067%=      5-min Rain = 0
KMCS 090730Z 31006KT M06/M12 A3028 RMK A01 T10611115  RH  065%=      5-min Rain = 0
KMCS 090735Z 31007KT M06/M12 A3028 RMK A01 T10601115  RH  065%=      5-min Rain = 0
KMCS 090740Z 32006KT M06/M12 A3027 RMK A01 T10591115  RH  064%=      5-min Rain = 0
KMCS 090745Z 31006KT M06/M12 A3027 RMK A01 T10621115  RH  065%=      5-min Rain = 0
KMCS 090750Z 30006KT M06/M12 A3028 RMK A01 T10641116  RH  066%=      5-min Rain = 0
KMCS 090755Z 31006KT M06/M12 A3028 RMK A01 T10621115  RH  066%=      5-min Rain = 0
KMCS 090800Z 30006KT M06/M12 A3028 RMK A01 T10631116  RH  066%=      5-min Rain = 0
KMCS 090805Z 31006KT M06/M12 A3028 RMK A01 T10631116  RH  066%=      5-min Rain = 0
KMCS 090810Z 31007KT M06/M12 A3028 RMK A01 T10601115  RH  065%=      5-min Rain = 0
KMCS 090815Z 31007KT M06/M12 A3028 RMK A01 T10591115  RH  064%=      5-min Rain = 0
KMCS 090820Z 31007KT M06/M12 A3028 RMK A01 T10611115  RH  065%=      5-min Rain = 0
KMCS 090825Z 30007KT M06/M12 A3028 RMK A01 T10641116  RH  066%=      5-min Rain = 0
KMCS 090830Z 31007KT M07/M12 A3028 RMK A01 T10651116  RH  067%=      5-min Rain = 0
KMCS 090835Z 32007KT M06/M12 A3028 RMK A01 T10621115  RH  065%=      5-min Rain = 0
KMCS 090840Z 32007KT M06/M12 A3028 RMK A01 T10621116  RH  065%=      5-min Rain = 0
KMCS 090845Z 32007KT M06/M12 A3028 RMK A01 T10641116  RH  066%=      5-min Rain = 0
KMCS 090850Z 32007KT M07/M12 A3028 RMK A01 T10651116  RH  066%=      5-min Rain = 0
KMCS 090855Z 32007KT M06/M12 A3028 RMK A01 T10641116  RH  066%=      5-min Rain = 0
KMCS 090900Z 32008KT M06/M12 A3028 RMK A01 T10641116  RH  066%=      5-min Rain = 0
KMCS 090905Z 32008KT M06/M12 A3028 RMK A01 T10641116  RH  066%=      5-min Rain = 0
KMCS 090910Z 32008KT M06/M12 A3029 RMK A01 T10641116  RH  066%=      5-min Rain = 0
KMCS 090915Z 32008KT M06/M12 A3028 RMK A01 T10641116  RH  066%=      5-min Rain = 0
KMCS 090920Z 32008KT M07/M12 A3028 RMK A01 T10661117  RH  067%=      5-min Rain = 0
KMCS 090925Z 31007KT M07/M12 A3029 RMK A01 T10701118  RH  068%=      5-min Rain = 0
KMCS 090930Z 32007KT M07/M12 A3029 RMK A01 T10731118  RH  070%=      5-min Rain = 0
KMCS 090935Z 32008KT M07/M12 A3029 RMK A01 T10701116  RH  069%=      5-min Rain = 0
KMCS 090940Z 31007KT M07/M12 A3029 RMK A01 T10681117  RH  068%=      5-min Rain = 0
KMCS 090945Z 31006KT M07/M12 A3029 RMK A01 T10741118  RH  070%=      5-min Rain = 0
KMCS 090950Z 31006KT M08/M12 A3029 RMK A01 T10751117  RH  072%=      5-min Rain = 0
KMCS 090955Z 31006KT M07/M12 A3029 RMK A01 T10741116  RH  071%=      5-min Rain = 0
KMCS 091000Z 32006KT M07/M12 A3028 RMK A01 T10721116  RH  071%=      5-min Rain = 0
KMCS 091005Z 31006KT M07/M12 A3028 RMK A01 T10721115  RH  071%=      5-min Rain = 0
KMCS 091010Z 32006KT M07/M12 A3028 RMK A01 T10681115  RH  069%=      5-min Rain = 0
KMCS 091015Z 32007KT M07/M12 A3028 RMK A01 T10671116  RH  068%=      5-min Rain = 0
KMCS 091020Z 32006KT M07/M12 A3028 RMK A01 T10681116  RH  068%=      5-min Rain = 0
KMCS 091025Z 33007KT M07/M12 A3028 RMK A01 T10691117  RH  068%=      5-min Rain = 0
KMCS 091030Z 33007KT M07/M12 A3028 RMK A01 T10701117  RH  069%=      5-min Rain = 0
KMCS 091035Z 33007KT M07/M12 A3028 RMK A01 T10691116  RH  069%=      5-min Rain = 0
KMCS 091040Z 33007KT M07/M12 A3028 RMK A01 T10681116  RH  068%=      5-min Rain = 0
KMCS 091045Z 33007KT M07/M12 A3028 RMK A01 T10681117  RH  068%=      5-min Rain = 0
KMCS 091050Z 33008KT M07/M12 A3028 RMK A01 T10671117  RH  067%=      5-min Rain = 0
KMCS 091055Z 33008KT M07/M12 A3028 RMK A01 T10651117  RH  066%=      5-min Rain = 0
KMCS 091100Z 33008KT M07/M12 A3028 RMK A01 T10661118  RH  066%=      5-min Rain = 0
KMCS 091105Z 33007KT M07/M12 A3028 RMK A01 T10701119  RH  068%=      5-min Rain = 0
KMCS 091110Z 33007KT M08/M12 A3028 RMK A01 T10781119  RH  072%=      5-min Rain = 0
KMCS 091115Z 33008KT M08/M12 A3028 RMK A01 T10771117  RH  072%=      5-min Rain = 0
KMCS 091120Z 32007KT M08/M12 A3028 RMK A01 T10771117  RH  072%=      5-min Rain = 0
KMCS 091125Z 32008KT M08/M12 A3028 RMK A01 T10771117  RH  073%=      5-min Rain = 0
KMCS 091130Z 33009KT M07/M12 A3028 RMK A01 T10731116  RH  071%=      5-min Rain = 0
KMCS 091135Z 33009KT M07/M12 A3028 RMK A01 T10681116  RH  068%=      5-min Rain = 0
KMCS 091140Z 33009KT M07/M12 A3028 RMK A01 T10671117  RH  067%=      5-min Rain = 0
KMCS 091145Z 33010KT M07/M12 A3028 RMK A01 T10671117  RH  067%=      5-min Rain = 0
KMCS 091150Z 33011KT M07/M12 A3028 RMK A01 T10651117  RH  066%=      5-min Rain = 0
KMCS 091155Z 33010KT M07/M12 A3028 RMK A01 T10671117  RH  067%=      5-min Rain = 0
KMCS 091200Z 33009KT M07/M12 A3028 RMK A01 T10681117  RH  068%=      5-min Rain = 0
KMCS 091205Z 33009KT M07/M12 A3028 RMK A01 T10711116  RH  069%=      5-min Rain = 0
KMCS 091210Z 33010KT M07/M12 A3028 RMK A01 T10711116  RH  070%=      5-min Rain = 0
KMCS 091215Z 32009KT M07/M12 A3029 RMK A01 T10721115  RH  071%=      5-min Rain = 0
KMCS 091220Z 33009KT M07/M11 A3029 RMK A01 T10721114  RH  071%=      5-min Rain = 0
KMCS 091225Z 33008KT M07/M11 A3029 RMK A01 T10691111  RH  071%=      5-min Rain = 0
KMCS 091230Z 33008KT M07/M11 A3029 RMK A01 T10671111  RH  071%=      5-min Rain = 0
KMCS 091235Z 34009KT M07/M11 A3029 RMK A01 T10661110  RH  070%=      5-min Rain = 0
KMCS 091240Z 33011KT M06/M11 A3029 RMK A01 T10621110  RH  069%=      5-min Rain = 0
KMCS 091245Z 33010KT M06/M11 A3029 RMK A01 T10601110  RH  067%=      5-min Rain = 0
KMCS 091250Z 33008KT M06/M11 A3029 RMK A01 T10621110  RH  068%=      5-min Rain = 0
KMCS 091255Z 33008KT M07/M11 A3029 RMK A01 T10661109  RH  071%=      5-min Rain = 0
KMCS 091300Z 33009KT M07/M11 A303 RMK A01 T10661108  RH  071%=      5-min Rain = 0
KMCS 091305Z 32009KT M07/M11 A303 RMK A01 T10681109  RH  072%=      5-min Rain = 0
KMCS 091310Z 32009KT M07/M11 A303 RMK A01 T10691109  RH  073%=      5-min Rain = 0
KMCS 091315Z 32010KT M07/M11 A303 RMK A01 T10701109  RH  073%=      5-min Rain = 0
KMCS 091320Z 33010KT M07/M11 A303 RMK A01 T10661109  RH  071%=      5-min Rain = 0
KMCS 091325Z 33010KT M07/M11 A303 RMK A01 T10661108  RH  071%=      5-min Rain = 0
KMCS 091330Z 33009KT M07/M11 A303 RMK A01 T10651108  RH  071%=      5-min Rain = 0
KMCS 091335Z 32009KT M06/M11 A3031 RMK A01 T10641108  RH  071%=      5-min Rain = 0
KMCS 091340Z 32010KT M06/M11 A3031 RMK A01 T10631107  RH  071%=      5-min Rain = 0
KMCS 091345Z 32009KT M06/M11 A3031 RMK A01 T10621105  RH  071%=      5-min Rain = 0
KMCS 091350Z 32009KT M06/M10 A3032 RMK A01 T10611104  RH  071%=      5-min Rain = 0
KMCS 091355Z 32009KT M06/M10 A3032 RMK A01 T10591103  RH  071%=      5-min Rain = 0
KMCS 091400Z 32010KT M06/M10 A3032 RMK A01 T10571102  RH  070%=      5-min Rain = 0
KMCS 091405Z 32010KT M06/M10 A3032 RMK A01 T10551102  RH  069%=      5-min Rain = 0
KMCS 091410Z 32010KT M05/M10 A3032 RMK A01 T10541101  RH  069%=      5-min Rain = 0
KMCS 091415Z 32010KT M05/M10 A3032 RMK A01 T10521101  RH  068%=      5-min Rain = 0
KMCS 091420Z 32010KT M05/M10 A3033 RMK A01 T10491100  RH  067%=      5-min Rain = 0
KMCS 091425Z 32009KT M05/M10 A3033 RMK A01 T10451099  RH  066%=      5-min Rain = 0
KMCS 091430Z 32010KT M04/M10 A3033 RMK A01 T10411099  RH  063%=      5-min Rain = 0
KMCS 091435Z 32010KT M04/M10 A3033 RMK A01 T10391099  RH  063%=      5-min Rain = 0
KMCS 091440Z 32009KT M04/M10 A3033 RMK A01 T10361098  RH  062%=      5-min Rain = 0
KMCS 091445Z 32009KT M03/M10 A3033 RMK A01 T10311097  RH  060%=      5-min Rain = 0
KMCS 091450Z 32009KT M03/M10 A3034 RMK A01 T10271098  RH  058%=      5-min Rain = 0
KMCS 091455Z 33010KT M02/M10 A3033 RMK A01 T10241099  RH  056%=      5-min Rain = 0
KMCS 091500Z 32010KT M02/M10 A3034 RMK A01 T10211099  RH  055%=      5-min Rain = 0
KMCS 091505Z 32010KT M02/M10 A3034 RMK A01 T10191101  RH  053%=      5-min Rain = 0
KMCS 091510Z 33009KT M01/M10 A3034 RMK A01 T10141099  RH  052%=      5-min Rain = 0
KMCS 091515Z 33010KT M01/M10 A3034 RMK A01 T10101101  RH  050%=      5-min Rain = 0
KMCS 091520Z 32010KT M01/M10 A3034 RMK A01 T10071102  RH  048%=      5-min Rain = 0
KMCS 091525Z 32010KT M00/M10 A3035 RMK A01 T10021101  RH  047%=      5-min Rain = 0
KMCS 091530Z 33008KT 00/M10 A3035 RMK A01 T00011102  RH  046%=      5-min Rain = 0
KMCS 091535Z 32010KT 00/M10 A3035 RMK A01 T00041104  RH  044%=      5-min Rain = 0
KMCS 091540Z 32010KT 01/M11 A3035 RMK A01 T00061105  RH  043%=      5-min Rain = 0
KMCS 091545Z 32009KT 01/M10 A3035 RMK A01 T00101102  RH  043%=      5-min Rain = 0
KMCS 091550Z 33009KT 02/M10 A3035 RMK A01 T00151100  RH  042%=      5-min Rain = 0
KMCS 091555Z 33010KT 02/M10 A3035 RMK A01 T00181098  RH  042%=      5-min Rain = 0
KMCS 091600Z 33010KT 02/M10 A3035 RMK A01 T00211095  RH  042%=      5-min Rain = 0
KMCS 091605Z 33010KT 02/M09 A3036 RMK A01 T00241092  RH  042%=      5-min Rain = 0
KMCS 091610Z 33010KT 03/M09 A3035 RMK A01 T00251090  RH  042%=      5-min Rain = 0
KMCS 091615Z 33008KT 03/M09 A3035 RMK A01 T00291086  RH  042%=      5-min Rain = 0
KMCS 091620Z 33009KT 03/M09 A3035 RMK A01 T00311085  RH  042%=      5-min Rain = 0
KMCS 091625Z 34010KT 03/M08 A3036 RMK A01 T00341083  RH  042%=      5-min Rain = 0
KMCS 091630Z 34011KT 04/M08 A3036 RMK A01 T00391075  RH  043%=      5-min Rain = 0
KMCS 091635Z 34011KT 04/M07 A3036 RMK A01 T00421071  RH  044%=      5-min Rain = 0
KMCS 091640Z 33011KT 04/M07 A3036 RMK A01 T00411070  RH  044%=      5-min Rain = 0
KMCS 091645Z 33010KT 04/M07 A3036 RMK A01 T00441068  RH  044%=      5-min Rain = 0
KMCS 091650Z 33009KT 05/M07 A3036 RMK A01 T00461066  RH  044%=      5-min Rain = 0
KMCS 091655Z 34009KT 05/M07 A3035 RMK A01 T00451065  RH  044%=      5-min Rain = 0
KMCS 091700Z 34009KT 05/M07 A3036 RMK A01 T00471065  RH  044%=      5-min Rain = 0
KMCS 091705Z 34008KT 05/M06 A3036 RMK A01 T00521062  RH  044%=      5-min Rain = 0
KMCS 091710Z 34009KT 05/M06 A3036 RMK A01 T00541063  RH  043%=      5-min Rain = 0
KMCS 091715Z 35009KT 05/M06 A3036 RMK A01 T00531064  RH  043%=      5-min Rain = 0
KMCS 091720Z 34009KT 06/M06 A3036 RMK A01 T00561063  RH  042%=      5-min Rain = 0
KMCS 091725Z 33009KT 06/M07 A3036 RMK A01 T00571065  RH  041%=      5-min Rain = 0
KMCS 091730Z 33009G14KT 06/M06 A3036 RMK A01 T00571064  RH  041%=      5-min Rain = 0
KMCS 091735Z 35009KT 06/M06 A3036 RMK A01 T00611063  RH  041%=      5-min Rain = 0
KMCS 091740Z 35009KT 06/M06 A3035 RMK A01 T00621063  RH  040%=      5-min Rain = 0
KMCS 091745Z 36007KT 06/M07 A3035 RMK A01 T00631067  RH  039%=      5-min Rain = 0
KMCS 091750Z 35006KT 07/M06 A3035 RMK A01 T00651061  RH  040%=      5-min Rain = 0
KMCS 091755Z 35009KT 06/M06 A3035 RMK A01 T00641063  RH  040%=      5-min Rain = 0
KMCS 091800Z 34007KT 07/M06 A3035 RMK A01 T00661063  RH  039%=      5-min Rain = 0
KMCS 091805Z 35006KT 07/M06 A3034 RMK A01 T00681061  RH  039%=      5-min Rain = 0
KMCS 091810Z 35006G11KT 07/M06 A3034 RMK A01 T00661063  RH  039%=      5-min Rain = 0
KMCS 091815Z 36004KT 07/M07 A3033 RMK A01 T00681066  RH  038%=      5-min Rain = 0
KMCS 091820Z 34006KT 07/M07 A3033 RMK A01 T00671070  RH  037%=      5-min Rain = 0
KMCS 091825Z 34006G11KT 07/M07 A3033 RMK A01 T00681068  RH  037%=      5-min Rain = 0
KMCS 091830Z 33006KT 07/M07 A3033 RMK A01 T00721069  RH  036%=      5-min Rain = 0
KMCS 091835Z 32006KT 07/M08 A3033 RMK A01 T00701076  RH  034%=      5-min Rain = 0
KMCS 091840Z 32003KT 07/M07 A3032 RMK A01 T00711074  RH  035%=      5-min Rain = 0
KMCS 091845Z 31004KT 07/M08 A3032 RMK A01 T00711077  RH  034%=      5-min Rain = 0
KMCS 091850Z 33005KT 07/M07 A3032 RMK A01 T00721069  RH  036%=      5-min Rain = 0
KMCS 091855Z 32005KT 07/M07 A3032 RMK A01 T00731068  RH  036%=      5-min Rain = 0
KMCS 091900Z 34006KT 08/M07 A3032 RMK A01 T00751066  RH  036%=      5-min Rain = 0
KMCS 091905Z 32004KT 07/M07 A3031 RMK A01 T00741066  RH  036%=      5-min Rain = 0
KMCS 091910Z 30004G9KT 08/M07 A3031 RMK A01 T00771067  RH  035%=      5-min Rain = 0
KMCS 091915Z 34005KT 08/M07 A3031 RMK A01 T00801067  RH  035%=      5-min Rain = 0
KMCS 091920Z 36004KT 08/M07 A3031 RMK A01 T00781065  RH  036%=      5-min Rain = 0
KMCS 091925Z 33004G9KT 08/M07 A303 RMK A01 T00781066  RH  035%=      5-min Rain = 0
KMCS 091930Z 29004KT 08/M07 A303 RMK A01 T00781066  RH  035%=      5-min Rain = 0
KMCS 091935Z 30004KT 08/M07 A303 RMK A01 T00811066  RH  035%=      5-min Rain = 0
KMCS 091940Z 32004KT 08/M07 A303 RMK A01 T00841066  RH  034%=      5-min Rain = 0
KMCS 091945Z 32004KT 08/M07 A303 RMK A01 T00841069  RH  033%=      5-min Rain = 0
KMCS 091950Z 34005KT 09/M07 A303 RMK A01 T00861070  RH  032%=      5-min Rain = 0
KMCS 091955Z 32002KT 09/M07 A303 RMK A01 T00871071  RH  032%=      5-min Rain = 0
KMCS 092000Z 01003KT 09/M07 A303 RMK A01 T00911070  RH  032%=      5-min Rain = 0
KMCS 092005Z 34004KT 09/M07 A303 RMK A01 T00911070  RH  031%=      5-min Rain = 0
KMCS 092010Z 01005KT 09/M07 A3029 RMK A01 T00891069  RH  032%=      5-min Rain = 0
KMCS 092015Z 02005KT 09/M07 A3029 RMK A01 T00881068  RH  032%=      5-min Rain = 0
KMCS 092020Z 01004KT 09/M07 A3029 RMK A01 T00901067  RH  032%=      5-min Rain = 0
KMCS 092025Z 32001KT 09/M07 A3029 RMK A01 T00901066  RH  032%=      5-min Rain = 0
KMCS 092030Z 25003KT 09/M07 A3028 RMK A01 T00921067  RH  032%=      5-min Rain = 0
KMCS 092035Z 29002KT 10/M07 A3028 RMK A01 T00951066  RH  032%=      5-min Rain = 0
KMCS 092040Z 30004KT 10/M07 A3028 RMK A01 T00951067  RH  031%=      5-min Rain = 0
KMCS 092045Z 31004KT 09/M07 A3029 RMK A01 T00931068  RH  031%=      5-min Rain = 0
KMCS 092050Z 27003KT 09/M07 A3029 RMK A01 T00941068  RH  031%=      5-min Rain = 0
KMCS 092055Z 33004G9KT 10/M07 A3029 RMK A01 T00991068  RH  030%=      5-min Rain = 0
KMCS 092100Z 35005KT 10/M07 A3029 RMK A01 T00971068  RH  031%=      5-min Rain = 0
KMCS 092105Z 29004KT 10/M07 A3029 RMK A01 T00991066  RH  031%=      5-min Rain = 0
KMCS 092110Z 29003KT 10/M07 A3029 RMK A01 T00971068  RH  031%=      5-min Rain = 0
KMCS 092115Z 33004KT 10/M07 A3029 RMK A01 T00991068  RH  030%=      5-min Rain = 0
KMCS 092120Z 32007KT 10/M07 A3029 RMK A01 T00991072  RH  029%=      5-min Rain = 0
KMCS 092125Z 36004KT 10/M07 A3029 RMK A01 T00981070  RH  030%=      5-min Rain = 0
KMCS 092130Z 00004KT 10/M07 A3028 RMK A01 T00991068  RH  030%=      5-min Rain = 0
KMCS 092135Z 30004KT 10/M07 A3029 RMK A01 T01001067  RH  030%=      5-min Rain = 0
KMCS 092140Z 35004KT 10/M07 A3029 RMK A01 T01001069  RH  030%=      5-min Rain = 0
KMCS 092145Z 33007KT 10/M07 A3029 RMK A01 T01001071  RH  029%=      5-min Rain = 0
KMCS 092150Z 36004KT 10/M07 A3029 RMK A01 T00981071  RH  030%=      5-min Rain = 0
KMCS 092155Z 34002KT 10/M07 A3029 RMK A01 T00981070  RH  030%=      5-min Rain = 0
KMCS 092200Z 32004KT 10/M07 A3029 RMK A01 T01001070  RH  030%=      5-min Rain = 0
KMCS 092205Z 32006KT 10/M07 A3029 RMK A01 T01001070  RH  029%=      5-min Rain = 0
KMCS 092210Z 34005KT 10/M07 A3029 RMK A01 T00991074  RH  029%=      5-min Rain = 0
KMCS 092215Z 36005KT 10/M08 A3029 RMK A01 T00951075  RH  029%=      5-min Rain = 0
KMCS 092220Z 35004KT 09/M07 A3029 RMK A01 T00941073  RH  030%=      5-min Rain = 0
KMCS 092225Z 00003KT 09/M07 A3029 RMK A01 T00921072  RH  031%=      5-min Rain = 0
KMCS 092230Z 36004KT 09/M07 A3029 RMK A01 T00921071  RH  031%=      5-min Rain = 0
KMCS 092235Z 36004KT 09/M07 A303 RMK A01 T00931070  RH  031%=      5-min Rain = 0
KMCS 092240Z 00005KT 09/M07 A303 RMK A01 T00931070  RH  031%=      5-min Rain = 0
KMCS 092245Z 01003KT 09/M07 A303 RMK A01 T00901070  RH  031%=      5-min Rain = 0
KMCS 092250Z 02002KT 09/M07 A303 RMK A01 T00901070  RH  032%=      5-min Rain = 0
KMCS 092255Z 00003KT 09/M07 A303 RMK A01 T00901069  RH  032%=      5-min Rain = 0
KMCS 092300Z 00003KT 09/M07 A303 RMK A01 T00871068  RH  033%=      5-min Rain = 0
KMCS 092305Z 01003KT 09/M07 A303 RMK A01 T00851068  RH  033%=      5-min Rain = 0
KMCS 092310Z 02003KT 09/M07 A303 RMK A01 T00861068  RH  033%=      5-min Rain = 0
KMCS 092315Z 01002KT 09/M07 A303 RMK A01 T00871068  RH  033%=      5-min Rain = 0
KMCS 092320Z 02002KT 09/M07 A303 RMK A01 T00871068  RH  033%=      5-min Rain = 0
KMCS 092325Z 02003KT 09/M07 A303 RMK A01 T00851068  RH  033%=      5-min Rain = 0
KMCS 092330Z 02004KT 08/M07 A303 RMK A01 T00821069  RH  033%=      5-min Rain = 0
KMCS 092335Z 02004KT 08/M07 A303 RMK A01 T00791071  RH  034%=      5-min Rain = 0
KMCS 092340Z 02004KT 08/M07 A303 RMK A01 T00781073  RH  033%=      5-min Rain = 0
KMCS 092345Z 02004KT 08/M07 A303 RMK A01 T00781074  RH  033%=      5-min Rain = 0
KMCS 092350Z 02003KT 08/M07 A3031 RMK A01 T00761074  RH  033%=      5-min Rain = 0
KMCS 092355Z 03004KT 08/M08 A3031 RMK A01 T00751075  RH  034%=      5-min Rain = 0
KMCS 100000Z 02005KT 07/M08 A3031 RMK A01 T00741076  RH  034%=      5-min Rain = 0
KMCS 100005Z 02005KT 07/M08 A3031 RMK A01 T00711079  RH  033%=      5-min Rain = 0
KMCS 100010Z 02005KT 07/M08 A3031 RMK A01 T00691081  RH  033%=      5-min Rain = 0
KMCS 100015Z 03005KT 07/M08 A3031 RMK A01 T00681082  RH  033%=      5-min Rain = 0
KMCS 100020Z 03005KT 07/M08 A3032 RMK A01 T00671083  RH  034%=      5-min Rain = 0
KMCS 100025Z 03006KT 07/M08 A3032 RMK A01 T00651082  RH  034%=      5-min Rain = 0
KMCS 100030Z 03006KT 06/M08 A3032 RMK A01 T00641081  RH  034%=      5-min Rain = 0
KMCS 100035Z 02006KT 06/M08 A3032 RMK A01 T00641080  RH  035%=      5-min Rain = 0
KMCS 100040Z 02006KT 07/M08 A3032 RMK A01 T00651079  RH  035%=      5-min Rain = 0
KMCS 100045Z 02006KT 07/M08 A3032 RMK A01 T00661079  RH  035%=      5-min Rain = 0
KMCS 100050Z 02006KT 07/M08 A3032 RMK A01 T00661079  RH  035%=      5-min Rain = 0
KMCS 100055Z 03005KT 07/M08 A3032 RMK A01 T00651080  RH  035%=      5-min Rain = 0
KMCS 100100Z 02005KT 07/M08 A3032 RMK A01 T00651081  RH  034%=      5-min Rain = 0
KMCS 100105Z 02005KT 06/M08 A3032 RMK A01 T00641081  RH  035%=      5-min Rain = 0
KMCS 100110Z 02005KT 06/M08 A3032 RMK A01 T00641081  RH  034%=      5-min Rain = 0
KMCS 100115Z 02005KT 07/M08 A3032 RMK A01 T00651081  RH  034%=      5-min Rain = 0
KMCS 100120Z 03004KT 06/M08 A3032 RMK A01 T00641081  RH  035%=      5-min Rain = 0
KMCS 100125Z 04003KT 06/M08 A3031 RMK A01 T00631081  RH  035%=      5-min Rain = 0
KMCS 100130Z 04003KT 06/M08 A3031 RMK A01 T00581081  RH  036%=      5-min Rain = 0
KMCS 100135Z 02003KT 06/M08 A3032 RMK A01 T00571081  RH  036%=      5-min Rain = 0
KMCS 100140Z 01004KT 04/M08 A3032 RMK A01 T00411083  RH  040%=      5-min Rain = 0
KMCS 100145Z 00003KT 03/M08 A3032 RMK A01 T00291083  RH  043%=      5-min Rain = 0
KMCS 100150Z 36004KT 03/M08 A3032 RMK A01 T00311082  RH  043%=      5-min Rain = 0
KMCS 100155Z 36003KT 03/M08 A3032 RMK A01 T00281082  RH  044%=      5-min Rain = 0
KMCS 100200Z 35005KT 04/M08 A3032 RMK A01 T00351081  RH  042%=      5-min Rain = 0
KMCS 100205Z 34004KT 04/M08 A3033 RMK A01 T00361082  RH  042%=      5-min Rain = 0
KMCS 100210Z 34003KT 04/M08 A3032 RMK A01 T00361081  RH  042%=      5-min Rain = 0
KMCS 100215Z 34003KT 04/M08 A3032 RMK A01 T00371081  RH  042%=      5-min Rain = 0
KMCS 100220Z 34004KT 04/M08 A3033 RMK A01 T00381081  RH  041%=      5-min Rain = 0
KMCS 100225Z 32003KT 04/M08 A3033 RMK A01 T00381081  RH  041%=      5-min Rain = 0
KMCS 100230Z 31003KT 04/M08 A3033 RMK A01 T00351082  RH  042%=      5-min Rain = 0
KMCS 100235Z 30003KT 03/M08 A3032 RMK A01 T00331081  RH  043%=      5-min Rain = 0
KMCS 100240Z 27002KT 04/M08 A3032 RMK A01 T00371079  RH  042%=      5-min Rain = 0
KMCS 100245Z 26002KT 04/M08 A3032 RMK A01 T00351079  RH  043%=      5-min Rain = 0
KMCS 100250Z 25002KT 03/M08 A3032 RMK A01 T00331079  RH  044%=      5-min Rain = 0
KMCS 100255Z 25004KT 04/M08 A3032 RMK A01 T00351079  RH  043%=      5-min Rain = 0
KMCS 100300Z 25005KT 03/M08 A3032 RMK A01 T00311080  RH  044%=      5-min Rain = 0
KMCS 100305Z 26006KT 03/M08 A3033 RMK A01 T00271080  RH  045%=      5-min Rain = 0
KMCS 100310Z 28005KT 02/M08 A3033 RMK A01 T00211079  RH  047%=      5-min Rain = 0
KMCS 100315Z 31004KT 02/M08 A3033 RMK A01 T00241079  RH  047%=      5-min Rain = 0
KMCS 100320Z 32004KT 03/M08 A3033 RMK A01 T00261079  RH  046%=      5-min Rain = 0
KMCS 100325Z 31005KT 02/M08 A3033 RMK A01 T00231080  RH  047%=      5-min Rain = 0
KMCS 100330Z 32006KT 01/M08 A3033 RMK A01 T00131080  RH  050%=      5-min Rain = 0
KMCS 100335Z 32007KT 01/M08 A3033 RMK A01 T00071080  RH  052%=      5-min Rain = 0
KMCS 100340Z 32008KT 00/08 A3033 RMK A01 T00-00-81  RH  054%=      5-min Rain = 0
KMCS 100345Z 32009KT M00/M08 A3033 RMK A01 T10011080  RH  055%=      5-min Rain = 0
KMCS 100350Z 32008KT M00/M08 A3034 RMK A01 T10021080  RH  056%=      5-min Rain = 0
KMCS 100355Z 32009KT M00/M08 A3034 RMK A01 T10041080  RH  057%=      5-min Rain = 0
KMCS 100400Z 32009KT M01/M08 A3034 RMK A01 T10061079  RH  057%=      5-min Rain = 0
KMCS 100405Z 32009KT M01/M08 A3034 RMK A01 T10061079  RH  058%=      5-min Rain = 0
KMCS 100410Z 32008KT M01/M08 A3034 RMK A01 T10091080  RH  059%=      5-min Rain = 0
KMCS 100415Z 31008KT M01/M08 A3034 RMK A01 T10121080  RH  060%=      5-min Rain = 0
KMCS 100420Z 30008KT M02/M08 A3033 RMK A01 T10161081  RH  061%=      5-min Rain = 0
KMCS 100425Z 30008KT M02/M08 A3033 RMK A01 T10181080  RH  062%=      5-min Rain = 0
KMCS 100430Z 31008KT M01/M08 A3033 RMK A01 T10121079  RH  060%=      5-min Rain = 0
KMCS 100435Z 30007KT M01/M08 A3033 RMK A01 T10091078  RH  059%=      5-min Rain = 0
KMCS 100440Z 30007KT M01/M08 A3033 RMK A01 T10071078  RH  058%=      5-min Rain = 0
KMCS 100445Z 30007KT M01/M08 A3033 RMK A01 T10051077  RH  058%=      5-min Rain = 0
KMCS 100450Z 30007KT M00/M08 A3033 RMK A01 T10031076  RH  058%=      5-min Rain = 0
KMCS 100455Z 30007KT 00/M08 A3033 RMK A01 T00031075  RH  056%=      5-min Rain = 0
KMCS 100500Z 30006KT 00/M08 A3032 RMK A01 T00021076  RH  055%=      5-min Rain = 0
KMCS 100505Z 29006KT M00/M08 A3033 RMK A01 T10031078  RH  057%=      5-min Rain = 0
KMCS 100510Z 28006KT M01/M08 A3033 RMK A01 T10071078  RH  059%=      5-min Rain = 0
KMCS 100515Z 29006KT M01/M08 A3033 RMK A01 T10081077  RH  059%=      5-min Rain = 0
KMCS 100520Z 30005KT M01/M08 A3033 RMK A01 T10081077  RH  059%=      5-min Rain = 0
KMCS 100525Z 30007KT M01/M08 A3033 RMK A01 T10051076  RH  059%=      5-min Rain = 0
KMCS 100530Z 29006KT M01/M08 A3033 RMK A01 T10081076  RH  060%=      5-min Rain = 0
KMCS 100535Z 30005KT M01/M08 A3033 RMK A01 T10081076  RH  060%=      5-min Rain = 0
KMCS 100540Z 30006KT M01/M08 A3033 RMK A01 T10071076  RH  060%=      5-min Rain = 0
KMCS 100545Z 30006KT M01/M08 A3032 RMK A01 T10061076  RH  059%=      5-min Rain = 0
KMCS 100550Z 31007KT M01/M08 A3032 RMK A01 T10051076  RH  059%=      5-min Rain = 0
KMCS 100555Z 30006KT M01/M08 A3032 RMK A01 T10071077  RH  059%=      5-min Rain = 0

Page generated in 0.0377 seconds.